Amsterdam, MO

12:11 PM CST on December 06, 2016 (GMT -0600)
KMOAMSTE2 | | Change Station

Elev 906 ft 38.36 °N, 94.61 °W | Updated 2 seconds ago

Clear
Clear
40.6 °F
Feels Like 41 °F
N
0.0
Wind Variable Wind from North
Gusts 0.0 mph

Today
High -- | Low -- °F
--% Chance of Precip.
Yesterday
High -- | Low -- °F
Precip. -- in
Pressure 30.09 in
Visibility 10.0 miles
Clouds Clear
Windchill 41 °F
Dew Point 0 °F
Humidity 18%
Rainfall 0.00 in
Snow Depth Not available.
7:21 AM 4:57 PM
Waxing Crescent, 44% visible
METAR KOJC 061753Z 33014G19KT 10SM CLR 02/M11 A3006 RMK AO2 SLP187 T00171106 10022 21011 50020
Pressure 30.09 in
Visibility 10.0 miles
Clouds Clear
Windchill 41 °F
Dew Point 0 °F
Humidity 18%
Rainfall 0.00 in
Snow Depth Not available.
7:21 AM 4:57 PM
Waxing Crescent, 44% visible
METAR KOJC 061753Z 33014G19KT 10SM CLR 02/M11 A3006 RMK AO2 SLP187 T00171106 10022 21011 50020

10-Day Weather Forecast

Almanac

Astronomy

Dec. 06, 2016 Rise Set
Actual Time
Civil Twilight
Nautical Twilight
Astronomical Twilight
Moon
Length of Visible Light
Length of Day
Tomorrow will be .
, % of the Moon is Illuminated

Today's Extremes

State Highs State Lows

Community

WunderPhotos

Upload Photos

1,955,997 photos uploaded!

WunderBlog® & News

Nearby

Air Quality

  Air Quality AQ Index Pollutant
Not available.

Snow Depth

Station Depth Elevation

Earthquake Activity

City Distance Mag. Time & Date
Minimum magnitude displayed is 2.5.

Coastal Water Temperatures

Place Temperature

Stations

Nearby Weather Stations

Station Location Temp. Windchill Dew Point Humidity Wind Precip. Elev Updated Type
                   

Watches & Warnings

There are currently no watches in effect.